Cayuga, Indiana
Current Conditions -  °F | °C
As of 1:35 PM on Monday 26 Jan 2015 (Local Time) from KDNV Reporting Station
Overcast Overcast  
Wind Chill: -6°   Ceiling: 2000
Heat Index: -3°   Visibility: 10mi
Dew Point: -6°   Wind: 5mph
Humidity: 78%   Direction: 270°W
Pressure: 29.9"   Gusts: NA
Location:  39.95°N, 87.46°W
Report Text: KDNV 261835Z AUTO 27004KT 10SM OVC020 M03/M06 A2990 RMK AO2 T10281062
Loading
Personal Weather Stations






























Interactive Weather Map New forecast layout! Learn more

10-Day Weather Forecast

Advertisements
Track Severe Weather on mobile